Flight Track Log - Related Links

Times and Time Zones

All times are in EST time to prevent confusion due to time zone crossing. See the AFL2133 flight status page for this flight to view local times or setup timezone preferences in your user account.

Time Position Orientation Groundspeed Altitude Reporting Facility
EST Latitude Longitude Course Direction KTS MPH feet Rate Location/Type
Sat 03:40:00 PM 44.0169 31.0510 16° North  Level Estimated
Sat 03:41:00 PM 44.1657 31.1124 16° North  Level Estimated
Sat 03:42:00 PM 44.3145 31.1741 17° North  Level Estimated
Sat 03:43:00 PM 44.4632 31.2362 17° North  Level Estimated
Sat 03:44:00 PM 44.6119 31.2985 17° North  Level Estimated
Sat 03:45:00 PM 44.7606 31.3612 17° North  Level Estimated
Sat 03:46:00 PM 44.9092 31.4242 17° North  Level Estimated
Sat 03:47:00 PM 45.0578 31.4875 17° North  Level Estimated
Sat 03:48:00 PM 45.2064 31.5511 17° North  Level Estimated
Sat 03:49:00 PM 45.3549 31.6151 17° North  Level Estimated
Sat 03:50:00 PM 45.5034 31.6794 17° North  Level Estimated
Sat 03:51:00 PM 45.5900 31.7171 17° North  Level Estimated
Sat 03:52:00 PM 45.6766 31.7549 17° North  Level Estimated
Sat 03:53:00 PM 45.7631 31.7927 17° North  Level Estimated
Sat 03:54:00 PM 45.8496 31.8308 17° North  Level Estimated
Sat 03:55:00 PM 45.9362 31.8689 17° North  Level Estimated
Sat 03:56:00 PM 46.0227 31.9071 17° North  Level Estimated
Sat 03:57:00 PM 46.1092 31.9455 17° North  Level Estimated
Sat 03:58:00 PM 46.1957 31.9840 17° North  Level Estimated
Sat 03:59:00 PM 46.2821 32.0226 17° North  Level Estimated
Sat 04:00:00 PM 46.3686 32.0614 17° North  Level Estimated
Sat 04:01:00 PM 46.4550 32.1002 17° North  Level Estimated
Sat 04:02:00 PM 46.5415 32.1392 17° North  Level Estimated
Sat 04:03:00 PM 46.6279 32.1783 17° North  Level Estimated
Sat 04:04:00 PM 46.7143 32.2175 17° North  Level Estimated
Sat 04:05:00 PM 46.8007 32.2569 17° North  Level Estimated
Sat 04:06:00 PM 46.8871 32.2964 17° North  Level Estimated
Sat 04:07:00 PM 46.9734 32.3360 17° North  Level Estimated
Sat 04:08:00 PM 47.0598 32.3757 17° North  Level Estimated
Sat 04:09:00 PM 47.1461 32.4156 17° North  Level Estimated
Sat 04:10:00 PM 47.2325 32.4556 17° North  Level Estimated
Sat 04:11:00 PM 47.3188 32.4957 17° North  Level Estimated
Sat 04:12:00 PM 47.4051 32.5360 18° North  Level Estimated
Sat 04:13:00 PM 47.4913 32.5764 18° North  Level Estimated
Sat 04:14:00 PM 47.5776 32.6169 18° North  Level Estimated
Sat 04:15:00 PM 47.6639 32.6575 18° North  Level Estimated
Sat 04:16:00 PM 47.7501 32.6983 18° North  Level Estimated
Sat 04:17:00 PM 47.8363 32.7393 18° North  Level Estimated
Sat 04:18:00 PM 47.9226 32.7803 18° North  Level Estimated
Sat 04:19:00 PM 48.0088 32.8215 18° North  Level Estimated
Sat 04:20:00 PM 48.0949 32.8629 18° North  Level Estimated
Sat 04:21:00 PM 48.1811 32.9043 18° North  Level Estimated
Sat 04:22:00 PM 48.2673 32.9459 18° North  Level Estimated
Sat 04:23:00 PM 48.3534 32.9877 18° North  Level Estimated
Sat 04:24:00 PM 48.4395 33.0296 18° North  Level Estimated
Sat 04:25:00 PM 48.5256 33.0717 18° North  Level Estimated
Sat 04:26:00 PM 48.6117 33.1138 18° North  Level Estimated
Sat 04:27:00 PM 48.6978 33.1562 18° North  Level Estimated
Sat 04:28:00 PM 48.7838 33.1986 18° North  Level Estimated
Sat 04:29:00 PM 48.8699 33.2412 18° North  Level Estimated
Sat 04:30:00 PM 48.9559 33.2840 18° North  Level Estimated
Sat 04:31:00 PM 49.0419 33.3269 18° North  Level Estimated
Sat 04:32:00 PM 49.1279 33.3700 18° North  Level Estimated
Sat 04:33:00 PM 49.2139 33.4132 18° North  Level Estimated
Sat 04:34:00 PM 49.2999 33.4566 18° North  Level Estimated
Sat 04:35:00 PM 49.3858 33.5001 18° North  Level Estimated
Sat 04:36:00 PM 49.4717 33.5438 18° North  Level Estimated
Sat 04:37:00 PM 49.5577 33.5876 18° North  Level Estimated
Sat 04:38:00 PM 49.6436 33.6315 18° North  Level Estimated
Sat 04:39:00 PM 49.7295 33.6757 18° North  Level Estimated
Sat 04:40:00 PM 49.8153 33.7200 18° North  Level Estimated
Sat 04:41:00 PM 49.9012 33.7644 18° North  Level Estimated
Sat 04:42:00 PM 49.9870 33.8090 18° North  Level Estimated
Sat 04:43:00 PM 50.0728 33.8538 19° North  Level Estimated
Sat 04:44:00 PM 50.1586 33.8987 19° North  Level Estimated
Sat 04:45:00 PM 50.2444 33.9438 19° North  Level Estimated
Sat 04:46:00 PM 50.3301 33.9890 19° North  Level Estimated
Sat 04:47:00 PM 50.4159 34.0344 19° North  Level Estimated
Sat 04:48:00 PM 50.5016 34.0800 19° North  Level Estimated
Sat 04:49:00 PM 50.5873 34.1258 19° North  Level Estimated
Sat 04:50:00 PM 50.6730 34.1717 19° North  Level Estimated
Sat 04:51:00 PM 50.7587 34.2177 19° North  Level Estimated
Sat 04:52:00 PM 50.8443 34.2640 19° North  Level Estimated
Sat 04:53:00 PM 50.9300 34.3104 19° North  Level Estimated
Sat 04:54:00 PM 51.0156 34.3570 19° North  Level Estimated
Sat 04:55:00 PM 51.1012 34.4037 19° North  Level Estimated
Sat 04:56:00 PM 51.1868 34.4507 19° North  Level Estimated
Sat 04:57:00 PM 51.2723 34.4978 19° North  Level Estimated
Sat 04:58:00 PM 51.3579 34.5451 19° North  Level Estimated
Sat 04:59:00 PM 51.4434 34.5925 19° North  Level Estimated
Sat 05:00:00 PM 51.5289 34.6401 19° North  Level Estimated
Sat 05:01:00 PM 51.6144 34.6880 19° North  Level Estimated
Sat 05:02:00 PM 51.6998 34.7360 19° North  Level Estimated
Sat 05:03:00 PM 51.7853 34.7841 19° North  Level Estimated
Sat 05:04:00 PM 51.8707 34.8325 19° North  Level Estimated
Sat 05:05:00 PM 51.9561 34.8811 19° North  Level Estimated
Sat 05:06:00 PM 52.0415 34.9298 19° North  Level Estimated
Sat 05:07:00 PM 52.1269 34.9787 19° North  Level Estimated
Sat 05:08:00 PM 52.2122 35.0278 19° North  Level Estimated
Sat 05:09:00 PM 52.2976 35.0771 19° North  Level Estimated
Sat 05:10:00 PM 52.3829 35.1266 19° North  Level Estimated
Sat 05:11:00 PM 52.4681 35.1763 20° North  Level Estimated
Sat 05:12:00 PM 52.5534 35.2261 20° North  Level Estimated
Sat 05:13:00 PM 52.6386 35.2762 20° North  Level Estimated
Sat 05:14:00 PM 52.7239 35.3264 20° North  Level Estimated
Sat 05:15:00 PM 52.8091 35.3769 20° North  Level Estimated
Sat 05:16:00 PM 52.8942 35.4276 20° North  Level Estimated
Sat 05:17:00 PM 52.9794 35.4784 20° North  Level Estimated
Sat 05:18:00 PM 53.0645 35.5294 20° North  Level Estimated
Sat 05:19:00 PM 53.1496 35.5807 20° North  Level Estimated
Sat 05:20:00 PM 53.2347 35.6322 20° North  Level Estimated
Sat 05:21:00 PM 53.3198 35.6838 20° North  Level Estimated
Sat 05:22:00 PM 53.4049 35.7357 20° North  Level Estimated
Sat 05:23:00 PM 53.4899 35.7878 20° North  Level Estimated
Sat 05:24:00 PM 53.5749 35.8401 20° North  Level Estimated
Sat 05:25:00 PM 53.6599 35.8926 20° North  Level Estimated
Sat 05:26:00 PM 53.7448 35.9453 20° North  Level Estimated
Sat 05:27:00 PM 53.8297 35.9982 20° North  Level Estimated
Sat 05:28:00 PM 53.9146 36.0513 20° North  Level Estimated
Sat 05:29:00 PM 53.9995 36.1047 20° North  Level Estimated
Sat 05:30:00 PM 54.0844 36.1583 20° North  Level Estimated
Sat 05:31:00 PM 54.1692 36.2121 20° North  Level Estimated
Sat 05:32:00 PM 54.2540 36.2661 20° North  Level Estimated
Sat 05:33:00 PM 54.3388 36.3203 20° North  Level Estimated
Sat 05:34:00 PM 54.4236 36.3748 20° North  Level Estimated
Sat 05:35:00 PM 54.5083 36.4295 21° North  Level Estimated
Sat 05:36:00 PM 54.5930 36.4844 21° North  Level Estimated
Sat 05:37:00 PM 54.6777 36.5395 21° North  Level Estimated
Sat 05:38:00 PM 54.7624 36.5949 21° North  Level Estimated
Sat 05:39:00 PM 54.8470 36.6505 21° North  Level Estimated
Sat 05:40:00 PM 54.9316 36.7063 21° North  Level Estimated
Sat 05:41:00 PM 55.0162 36.7624 21° North  Level Estimated
Sat 05:42:00 PM 55.1008 36.8187 21° North  Level Estimated
Sat 05:43:00 PM 55.1853 36.8753 21° North  Level Estimated
Sat 05:44:00 PM 55.2698 36.9320 21° North  Level Estimated
Sat 05:45:00 PM 55.3543 36.9891 21° North  Level Estimated
Sat 05:46:00 PM 55.4388 37.0463 21° North  Level Estimated
Sat 05:47:00 PM 55.5232 37.1039 21° North  Level Estimated
Sat 05:48:00 PM 55.6076 37.1616 21° North  Level Estimated
Sat 05:49:00 PM 55.6920 37.2197 21° North  Level Estimated
Sat 05:50:00 PM 55.7763 37.2779 21° North  Level Estimated

Login

Don't have an account? Register now (free) for customized features, flight alerts, and more!